サンパウロ/グアルーリョス の空港の天気 - METARとTAF

グアルーリョス国際空港 (サンパウロ) ( SBGR / GRU ) - ブラジル サンパウロ州サンパウロ市
飛行場実況気象(Metar)
観測時間05/25 22:00 -03 (05/26 01:00 UTC)
風向・風速東 1m/s
視程10km以上
天気現象
なし
気温19℃
湿度94%
気圧1022hPa
METARSBGR 260100Z 08002KT CAVOK 19/18 Q1022
過去の天気等 Google飛行場航空写真 Wunderground天気予報

過去48時間のMETAR

飛行場予報(TAF)
発表時間: 5/25 18:00 -03 (5/25 21:00 UTC)
予報対象時間: 25日21時 -03 ~ 27日3時 -03
風向・風速東北東 3m/s
視程10km以上
なし
26日0時 -03 ~ 26日2時 -03 に徐々に
視程4,000m
天気現象もや
なし
26日6時 -03 から 確率 40% で
視程400m
天気現象
全天を覆う雲 雲底高度 60m
26日9時 -03 ~ 26日12時 -03 に徐々に
風向・風速北 3m/s
視程10km以上
なし
26日13時 -03 ~ 26日15時 -03 に徐々に
風向・風速北北西 5m/s
視程10km以上
少しの雲 雲底高度 1,220m
26日18時 -03 ~ 26日20時 -03 に徐々に
風向・風速東北東 3m/s
視程10km以上
なし
TAF SBGR 252100Z 2600/2706 06005KT CAVOK TN16/2609Z TX28/2617Z
BECMG 2603/2605 4000 BR NSC
PROB40 2609/2611 0400 FG OVC002
BECMG 2612/2615 35005KT CAVOK
BECMG 2616/2618 34010KT 9999 FEW040
BECMG 2621/2623 07005KT CAVOK RMK PGH